createdAt,value
2018-12-12T02:51:59.109Z,95.32
2018-12-12T02:57:38.599Z,94.23
2018-12-12T03:12:41.340Z,95.14
2018-12-12T03:27:44.500Z,96.17
2018-12-12T03:30:18.494Z,95.37
2018-12-12T03:39:21.322Z,94.86
2018-12-12T03:45:02.533Z,95.36
2018-12-12T03:47:50.915Z,96.06
2018-12-12T03:50:26.641Z,95.86
2018-12-12T03:59:07.320Z,94.47
2018-12-12T04:04:56.646Z,94.30
2018-12-12T04:07:46.162Z,95.26
2018-12-12T04:16:37.029Z,95.33
2018-12-12T05:08:29.156Z,96.63
2018-12-12T05:11:07.827Z,96.66
2018-12-12T05:13:53.196Z,96.86
2018-12-12T05:16:24.629Z,96.28
2018-12-12T05:19:06.671Z,96.85
2018-12-12T05:21:36.159Z,97.38
2018-12-12T05:24:20.435Z,97.21
2018-12-12T05:26:50.245Z,97.00
2018-12-12T05:29:20.003Z,96.49
2018-12-12T05:31:55.861Z,96.99
2018-12-12T05:37:38.248Z,97.01
2018-12-12T05:40:08.707Z,97.54
2018-12-12T05:42:56.663Z,97.95
2018-12-12T05:57:31.641Z,97.61
2018-12-12T06:00:17.598Z,97.32
2018-12-12T06:02:47.365Z,97.69
2018-12-12T06:05:37.367Z,97.33
2018-12-12T06:08:07.090Z,97.72
2018-12-12T06:10:36.769Z,98.01
2018-12-12T06:13:06.093Z,98.85
2018-12-12T06:15:35.855Z,99.07
2018-12-12T06:18:05.730Z,99.50
2018-12-12T06:20:35.803Z,100.00
2018-12-12T06:23:05.678Z,100.00
2018-12-12T06:25:38.854Z,100.00
2018-12-12T06:28:26.768Z,100.00
2018-12-12T06:30:56.169Z,100.00
2018-12-12T06:33:25.555Z,100.00
2018-12-12T06:36:08.231Z,100.00
2018-12-12T06:38:37.959Z,99.59
2018-12-12T06:41:14.211Z,98.54
2018-12-12T06:43:43.763Z,97.87
2018-12-12T06:46:26.389Z,97.53
2018-12-12T06:51:56.271Z,98.25
2018-12-12T06:54:38.274Z,99.08
2018-12-12T06:57:30.771Z,98.22
2018-12-12T07:00:00.555Z,97.98
2018-12-12T07:02:37.078Z,98.03
2018-12-12T07:05:17.466Z,97.89
2018-12-12T07:11:05.874Z,97.78
2018-12-12T07:19:52.917Z,98.29
2018-12-12T07:22:38.792Z,98.13
2018-12-12T07:25:08.894Z,98.48
2018-12-12T07:27:38.604Z,98.80
2018-12-12T07:30:09.096Z,98.74
2018-12-12T07:32:40.294Z,99.11
2018-12-12T07:35:10.034Z,98.66
2018-12-12T07:37:39.970Z,98.66
2018-12-12T07:40:09.925Z,98.80
2018-12-12T07:42:39.281Z,98.77
2018-12-12T07:45:09.106Z,98.42
2018-12-12T07:47:38.509Z,98.47
2018-12-12T07:50:08.663Z,98.08
2018-12-12T07:52:38.435Z,98.43
2018-12-12T07:55:08.309Z,98.15
2018-12-12T07:57:38.053Z,97.83
2018-12-12T08:00:08.590Z,97.50
2018-12-12T08:02:38.324Z,97.36
2018-12-12T08:05:08.380Z,96.80
2018-12-12T08:07:38.140Z,96.83
2018-12-12T08:10:08.070Z,97.37
2018-12-12T08:12:37.776Z,96.57
2018-12-12T08:15:07.396Z,94.96
2018-12-12T08:17:37.172Z,95.92
2018-12-12T08:20:06.668Z,96.10
2018-12-12T08:22:36.502Z,95.89
2018-12-12T08:25:06.754Z,95.74
2018-12-12T08:27:37.458Z,96.06
2018-12-12T08:30:07.872Z,95.46
2018-12-12T08:32:37.659Z,95.74
2018-12-12T08:35:07.658Z,95.56
2018-12-12T08:37:37.434Z,95.82
2018-12-12T08:40:08.884Z,95.92
2018-12-12T08:42:38.657Z,95.60
2018-12-12T08:45:08.574Z,95.78
2018-12-12T08:47:38.006Z,95.90
2018-12-12T08:50:09.701Z,96.56
2018-12-12T08:52:39.162Z,96.41
2018-12-12T08:55:09.153Z,95.96
2018-12-12T08:57:38.958Z,95.26
2018-12-12T09:00:09.153Z,95.12
2018-12-12T09:02:38.720Z,94.53
2018-12-12T09:05:08.120Z,92.34
2018-12-12T09:07:37.916Z,92.40
2018-12-12T09:10:07.332Z,93.18
2018-12-12T09:12:37.155Z,93.11
2018-12-12T09:15:07.448Z,92.03
2018-12-12T09:17:37.278Z,90.09
2018-12-12T09:20:07.605Z,89.36
2018-12-12T09:22:37.025Z,88.94
2018-12-12T09:25:07.918Z,88.51
2018-12-12T09:27:37.342Z,88.33
2018-12-12T09:30:07.654Z,89.64
2018-12-12T09:32:37.050Z,89.19
2018-12-12T09:35:07.062Z,89.03
2018-12-12T09:37:36.765Z,89.43
2018-12-12T09:40:06.989Z,89.49
2018-12-12T09:42:36.370Z,89.20
2018-12-12T09:45:06.351Z,89.12
2018-12-12T09:47:35.847Z,89.30
2018-12-12T09:50:06.363Z,89.23
2018-12-12T09:52:36.101Z,88.23
2018-12-12T09:55:05.975Z,88.43
2018-12-12T09:57:35.741Z,88.40
2018-12-12T10:00:05.553Z,87.86
2018-12-12T10:02:54.025Z,87.99
2018-12-12T10:05:26.825Z,86.91
2018-12-12T10:08:04.569Z,85.45
2018-12-12T10:10:39.843Z,85.01
2018-12-12T10:13:24.588Z,84.75
2018-12-12T10:19:11.684Z,84.53
2018-12-12T10:21:49.457Z,84.21
2018-12-12T10:24:29.389Z,84.19
2018-12-12T10:26:59.714Z,84.16
2018-12-12T10:32:36.252Z,83.62
2018-12-12T10:35:08.321Z,83.57
2018-12-12T10:37:38.240Z,85.91
2018-12-12T10:40:09.738Z,85.54
2018-12-12T10:42:39.644Z,85.81
2018-12-12T10:45:10.032Z,85.27
2018-12-12T10:47:39.902Z,83.87
2018-12-12T10:50:11.174Z,82.46
2018-12-12T10:52:40.597Z,82.97
2018-12-12T10:55:10.381Z,82.49
2018-12-12T10:57:39.888Z,82.77
2018-12-12T11:00:12.895Z,83.56
2018-12-12T11:05:46.997Z,85.91
2018-12-12T11:08:20.343Z,87.39
2018-12-12T11:10:53.506Z,87.53
2018-12-12T11:13:33.108Z,87.58
2018-12-12T11:16:15.088Z,87.23
2018-12-12T11:18:44.580Z,86.93
2018-12-12T11:21:40.617Z,87.80
2018-12-12T11:24:22.301Z,85.87
2018-12-12T11:26:52.918Z,84.93
2018-12-12T11:29:28.144Z,82.97
2018-12-12T11:32:01.715Z,83.45
2018-12-12T11:34:34.728Z,83.32
2018-12-12T11:40:22.080Z,84.51
2018-12-12T11:42:54.628Z,85.33
2018-12-12T11:48:19.096Z,84.36
2018-12-12T11:50:49.500Z,82.30
2018-12-12T11:53:19.907Z,82.02
2018-12-12T11:55:49.747Z,82.77
2018-12-12T11:58:19.526Z,83.25
2018-12-12T12:00:49.343Z,84.21
2018-12-12T12:03:19.263Z,84.42
2018-12-12T12:05:49.085Z,84.51
2018-12-12T12:08:18.900Z,85.24
2018-12-12T12:10:48.789Z,83.72
2018-12-12T12:13:18.598Z,83.87
2018-12-12T12:15:49.144Z,82.93
2018-12-12T12:18:18.942Z,82.52
2018-12-12T12:20:48.396Z,81.98
2018-12-12T12:23:18.259Z,82.12
2018-12-12T12:25:47.721Z,84.14
2018-12-12T12:28:17.117Z,86.05
2018-12-12T12:30:46.909Z,86.79
2018-12-12T12:33:16.655Z,86.72
2018-12-12T12:35:46.770Z,85.10
2018-12-12T12:38:16.843Z,84.79
2018-12-12T12:40:46.696Z,84.19
2018-12-12T12:43:16.130Z,84.72
2018-12-12T12:45:45.972Z,83.70
2018-12-12T12:48:15.792Z,82.68
2018-12-12T12:50:46.053Z,81.55
2018-12-12T12:53:16.181Z,79.56
2018-12-12T12:55:46.537Z,80.46
2018-12-12T12:58:16.361Z,81.04
2018-12-12T13:00:46.863Z,81.93
2018-12-12T13:03:16.858Z,82.56
2018-12-12T13:05:46.607Z,82.20
2018-12-12T13:08:16.353Z,82.65
2018-12-12T13:10:46.054Z,82.50
2018-12-12T13:13:16.654Z,82.63
2018-12-12T13:15:46.522Z,82.39
2018-12-12T13:18:17.253Z,81.55
2018-12-12T13:20:46.587Z,81.14
2018-12-12T13:23:16.487Z,81.57
2018-12-12T13:25:45.964Z,81.68
2018-12-12T13:28:15.939Z,81.59
2018-12-12T13:30:45.708Z,83.41
2018-12-12T13:33:15.104Z,83.69
2018-12-12T13:35:44.440Z,83.25
2018-12-12T13:38:14.244Z,83.17
2018-12-12T13:40:44.048Z,83.69
2018-12-12T13:43:13.810Z,84.13
2018-12-12T13:45:44.989Z,83.36
2018-12-12T13:48:14.778Z,83.08
2018-12-12T13:53:51.568Z,84.15
2018-12-12T14:02:24.734Z,82.63
2018-12-12T14:04:55.064Z,83.22
2018-12-12T14:07:24.782Z,83.72
2018-12-12T14:09:54.756Z,83.93
2018-12-12T14:12:24.440Z,83.88
2018-12-12T14:14:54.161Z,83.34
2018-12-12T14:17:24.164Z,84.73
2018-12-12T14:19:53.945Z,84.60
2018-12-12T14:22:23.680Z,83.41
2018-12-12T14:24:53.428Z,83.59
2018-12-12T14:27:23.205Z,83.69
2018-12-12T14:29:52.967Z,83.70
2018-12-12T14:32:23.164Z,83.17
2018-12-12T14:34:53.498Z,83.55
2018-12-12T14:37:23.216Z,83.61
2018-12-12T14:39:52.656Z,84.42
2018-12-12T14:54:56.090Z,83.30
2018-12-12T15:02:17.210Z,84.10
2018-12-12T15:05:00.723Z,85.59
2018-12-12T15:10:55.673Z,85.75
2018-12-12T15:13:35.258Z,86.03
2018-12-12T15:16:14.645Z,86.23
2018-12-12T15:24:56.907Z,88.27
2018-12-12T15:27:30.771Z,88.18
2018-12-12T15:30:06.509Z,88.12
2018-12-12T15:32:38.562Z,88.47
2018-12-12T15:35:17.169Z,89.21
2018-12-12T15:43:19.583Z,93.06
2018-12-12T15:45:54.446Z,94.00
2018-12-12T15:48:27.840Z,94.02
2018-12-12T15:51:06.934Z,94.37
2018-12-12T15:53:55.481Z,94.56
2018-12-12T15:56:40.553Z,94.56
2018-12-12T15:59:17.983Z,94.97
2018-12-12T16:01:59.859Z,94.56
2018-12-12T16:04:35.323Z,94.76
2018-12-12T16:09:54.791Z,94.45
2018-12-12T16:12:27.771Z,94.31
2018-12-12T16:15:32.531Z,93.62
2018-12-12T16:18:16.715Z,94.27
2018-12-12T16:21:09.725Z,94.44
2018-12-12T16:23:50.027Z,93.69
2018-12-12T16:26:33.856Z,93.26
2018-12-12T16:29:15.313Z,93.31
2018-12-12T16:38:01.606Z,97.05
2018-12-12T16:40:52.765Z,97.68
2018-12-12T16:43:26.135Z,97.97
2018-12-12T16:46:04.014Z,98.20
2018-12-12T16:48:41.427Z,98.70
2018-12-12T16:51:14.186Z,98.85
2018-12-12T16:53:51.133Z,98.77
2018-12-12T16:56:22.437Z,98.36
2018-12-12T16:59:04.118Z,98.70
2018-12-12T17:01:42.899Z,98.53
2018-12-12T17:04:16.839Z,98.03
2018-12-12T17:09:45.814Z,97.45
2018-12-12T17:12:15.608Z,97.15
2018-12-12T17:17:44.953Z,96.58
2018-12-12T17:20:21.226Z,96.21
2018-12-12T17:22:51.307Z,96.04
2018-12-12T17:25:21.441Z,95.56
2018-12-12T17:31:09.444Z,94.91
2018-12-12T17:33:45.673Z,94.38
2018-12-12T17:36:26.379Z,94.48
2018-12-12T17:38:56.489Z,94.46
2018-12-12T17:41:26.587Z,95.46
2018-12-12T17:43:56.747Z,95.46
2018-12-12T17:46:27.209Z,95.73
2018-12-12T17:48:56.627Z,95.82
2018-12-12T17:51:26.386Z,96.49
2018-12-12T17:53:56.303Z,96.65
2018-12-12T17:56:27.080Z,97.05
2018-12-12T18:02:10.518Z,97.60
2018-12-12T18:04:42.260Z,97.35
2018-12-12T18:07:33.791Z,96.44
2018-12-12T18:10:07.875Z,96.73
2018-12-12T18:12:37.847Z,97.63
2018-12-12T18:15:07.266Z,98.10
2018-12-12T18:17:37.036Z,98.56
2018-12-12T18:20:06.678Z,98.84
2018-12-12T18:22:36.428Z,99.21
2018-12-12T18:25:33.717Z,98.71
2018-12-12T18:28:03.218Z,98.91
2018-12-12T18:30:33.086Z,99.06
2018-12-12T18:33:02.507Z,99.05
2018-12-12T18:35:32.385Z,98.57
2018-12-12T18:38:01.830Z,98.77
2018-12-12T18:40:53.626Z,98.84
2018-12-12T18:43:23.405Z,99.87
2018-12-12T18:45:52.918Z,99.61
2018-12-12T18:48:22.441Z,99.91
2018-12-12T18:51:11.118Z,100.00
2018-12-12T18:53:41.750Z,100.00
2018-12-12T18:56:12.466Z,100.00
2018-12-12T18:58:41.929Z,100.00
2018-12-12T19:01:18.565Z,99.76
2018-12-12T19:03:48.703Z,99.89
2018-12-12T19:09:18.514Z,99.97
2018-12-12T19:11:48.078Z,99.73
2018-12-12T19:14:17.822Z,99.39
2018-12-12T19:16:48.433Z,99.91
2018-12-12T19:40:56.530Z,100.00
2018-12-12T19:43:26.945Z,100.00
2018-12-12T19:46:13.237Z,100.00
2018-12-12T19:57:50.813Z,100.00
2018-12-12T20:00:34.541Z,100.00
